Haines City, FL

1:38 PM EDT on May 24, 2015 (GMT -0400)
PD1 | | Change Station
CLOSE
Current Station
Personal Weather Station
Location: Holiday Manor, FL
Elevation: 100 ft
Nearby Weather Stations

Elev 100 ft 28.16 °N, 81.68 °W | Updated 3 minutes ago

Partly Cloudy
Partly Cloudy
88.4 °F
Feels Like 97 °F
N
5.0
Wind Variable Wind from East
Gusts 6.0 mph

Today
High -- | Low -- °F
--% Chance of Precip.
Yesterday
High -- | Low -- °F
Precip. -- in
6:32 AM 8:14 PM
Waxing Crescent, 41% visible
Pressure 30.19 in
Visibility 10.0 miles
Clouds Clear
Heat Index 97 °F
Dew Point 73 °F
Humidity 61%
Rainfall 0.00 in
Snow Depth Not available.
UV 15 out of 12
Pollen 5.20 out of 12
Air Quality Not available.
Flu Activity Sporadic
METAR KGIF 241653Z AUTO 09011KT 10SM CLR 33/21 A3020 RMK AO2 SLP222 T03280206

More Conditions Fewer Conditions

Pressure 30.19 in
Visibility 10.0 miles
Clouds Clear
Heat Index 97 °F
Dew Point 73 °F
Humidity 61%
Rainfall 0.00 in
Snow Depth Not available.
UV 15 out of 12
Pollen 5.20 out of 12
Air Quality Not available.
Flu Activity Sporadic
METAR KGIF 241653Z AUTO 09011KT 10SM CLR 33/21 A3020 RMK AO2 SLP222 T03280206

More Conditions Fewer Conditions

10-Day Weather Forecast

Almanac

Astronomy

May. 24, 2015 Rise Set
Actual Time
Civil Twilight
Nautical Twilight
Astronomical Twilight
Moon
Length of Visible Light
Length of Day
Tomorrow will be .
, % of the Moon is Illuminated

Today's Extremes

State Highs State Lows

Community

WunderPhotos

Upload Photos

1,823,806 photos uploaded!

WunderBlogs® & News

Nearby

Air Quality

  Air Quality AQ Index Pollutant
Not available.

Snow Depth

Station Depth Elevation

Earthquake Activity

City Distance Mag. Time & Date
Minimum magnitude displayed is 2.5.

Coastal Water Temperatures

Place Temperature

Stations

Nearby Weather Stations

Station Location Temp. Windchill Dew Point Humidity Wind Precip. Elev Updated Type